ケネスカウンダ国際空港の過去48時間の天気

ケネスカウンダ国際空港 (Lusaka Internationalairport)

現在時刻: 5/26 04:32 CAT (5/26 02:32 UTC) 以下の時間は現地時間です。

過去48時間のMETAR気象情報
時間 風向 風速(m/s) 視程 気温(℃) 湿度(%) 気圧(hPa) 天気現象
26 03:00 不定 1 10km以上 10 87 1023
26 00:00 不定 1 10km以上 13 72 1025
25 23:00 不定 2 10km以上 15 63 1025
25 22:00 不定 2 10km以上 15 63 1025
24 19:00 2 10km以上 17 48 1022
24 18:00 2 10km以上 19 43 1021
24 17:00 南南東 3 10km以上 23 27 1021
24 16:00 東南東 3 10km以上 25 21 1021
FLKK 260100Z VRB02KT CAVOK 10/08 Q1023
FLKK 252200Z VRB02KT CAVOK 13/08 Q1025
FLKK 252100Z VRB03KT CAVOK 15/08 Q1025
FLKK 252000Z VRB03KT CAVOK 15/08 Q1025
FLKK 241700Z 17004KT CAVOK 17/06 Q1022
FLKK 241600Z 18004KT CAVOK 19/06 Q1021
FLKK 241500Z 16006KT CAVOK 23/03 Q1021
FLKK 241400Z 12005KT CAVOK 25/01 Q1021